createdAt,value
2022-08-05T00:13:38.383Z,15.91
2022-08-05T00:28:42.030Z,15.84
2022-08-05T00:43:49.919Z,15.80
2022-08-05T00:58:52.191Z,15.70
2022-08-05T01:14:08.805Z,15.63
2022-08-05T01:29:19.149Z,15.59
2022-08-05T01:44:34.508Z,15.53
2022-08-05T01:59:39.592Z,15.48
2022-08-05T02:15:04.871Z,15.45
2022-08-05T02:30:09.269Z,15.35
2022-08-05T02:45:11.948Z,15.32
2022-08-05T03:00:15.511Z,15.25
2022-08-05T03:15:18.809Z,15.32
2022-08-05T03:30:20.910Z,15.43
2022-08-05T03:45:32.329Z,16.66
2022-08-05T04:00:57.073Z,18.04
2022-08-05T04:16:04.570Z,19.04
2022-08-05T04:31:10.468Z,19.83
2022-08-05T04:46:12.930Z,20.91
2022-08-05T05:01:15.191Z,22.79
2022-08-05T05:16:36.252Z,22.40
2022-08-05T05:46:38.968Z,23.08
2022-08-05T06:01:57.550Z,23.66
2022-08-05T06:17:02.020Z,24.41
2022-08-05T06:32:25.944Z,25.00
2022-08-05T06:47:30.265Z,25.40
2022-08-05T07:02:53.704Z,25.91
2022-08-05T07:18:09.567Z,26.44
2022-08-05T07:33:16.538Z,26.78
2022-08-05T07:49:00.398Z,27.07
2022-08-05T08:03:41.168Z,27.36
2022-08-05T08:18:49.989Z,27.83
2022-08-05T08:33:53.118Z,28.03
2022-08-05T08:49:06.386Z,28.24
2022-08-05T09:04:18.391Z,28.38
2022-08-05T09:19:27.744Z,28.58
2022-08-05T09:34:53.456Z,28.87
2022-08-05T09:50:02.372Z,28.94
2022-08-05T10:05:18.749Z,29.23
2022-08-05T10:20:23.136Z,29.30
2022-08-05T10:35:33.810Z,29.52
2022-08-05T10:51:21.928Z,29.76
2022-08-05T11:06:31.027Z,29.86
2022-08-05T11:21:48.877Z,29.93
2022-08-05T11:36:53.046Z,30.18
2022-08-05T11:51:57.722Z,30.51
2022-08-05T12:07:00.830Z,30.55
2022-08-05T12:22:09.408Z,30.58
2022-08-05T12:37:17.071Z,30.81
2022-08-05T12:52:25.228Z,30.95
2022-08-05T13:07:57.421Z,30.91
2022-08-05T13:22:54.070Z,30.91
2022-08-05T13:37:56.029Z,30.81
2022-08-05T13:52:58.168Z,30.86
2022-08-05T14:08:05.866Z,30.93
2022-08-05T14:23:13.412Z,30.75
2022-08-05T14:38:32.118Z,30.68
2022-08-05T14:53:44.302Z,30.68
2022-08-05T15:09:01.244Z,29.93
2022-08-05T15:24:06.410Z,29.88
2022-08-05T15:40:59.590Z,30.41
2022-08-05T15:54:34.680Z,30.45
2022-08-05T16:09:37.330Z,30.23
2022-08-05T16:24:51.778Z,30.10
2022-08-05T16:40:04.929Z,29.92
2022-08-05T16:55:09.036Z,29.52
2022-08-05T17:10:11.271Z,29.10
2022-08-05T17:25:33.974Z,28.49
2022-08-05T17:40:35.932Z,27.69
2022-08-05T17:55:40.180Z,26.80
2022-08-05T18:10:42.310Z,26.03
2022-08-05T18:25:45.288Z,25.03
2022-08-05T18:41:55.146Z,24.34
2022-08-05T18:56:12.569Z,23.73
2022-08-05T19:11:14.894Z,23.31
2022-08-05T19:26:16.969Z,22.88
2022-08-05T19:41:22.014Z,22.51
2022-08-05T19:56:37.870Z,22.01
2022-08-05T20:11:42.510Z,21.74
2022-08-05T20:26:50.492Z,21.50
2022-08-05T20:41:52.528Z,21.32
2022-08-05T20:56:54.853Z,21.11
2022-08-05T21:12:10.242Z,20.92
2022-08-05T21:27:13.729Z,20.70
2022-08-05T21:42:30.796Z,20.53
2022-08-05T21:57:42.442Z,20.36
2022-08-05T22:12:50.489Z,20.22
2022-08-05T22:28:11.417Z,20.12
2022-08-05T22:43:13.931Z,20.06
2022-08-05T22:58:16.036Z,19.98
2022-08-05T23:13:30.380Z,19.96
2022-08-05T23:28:32.499Z,19.76
2022-08-05T23:44:03.212Z,19.90
2022-08-05T23:58:58.681Z,19.86
